Time;durP1;ratioP1;P1;durP2;ratioP2;P2;SDS_P1;SDS_P2;PMS_P1;PMS_P2;Temp;Humidity;BMP_temperature;BMP_pressure;BME280_temperature;BME280_humidity;BME280_pressure;Samples;Min_cycle;Max_cycle;Signal;HPM_P1;HPM_P2
2023/11/30 00:02:05;;;;;;;13.50;9.80;;;1.20;99.90;;;;;;4916421;29;20285;-78
2023/11/30 00:04:33;;;;;;;18.93;10.60;;;1.20;99.90;;;;;;4902227;29;20419;-76
2023/11/30 00:06:59;;;;;;;19.20;11.60;;;1.20;99.90;;;;;;4917474;29;20448;-76
2023/11/30 00:09:24;;;;;;;20.67;12.23;;;1.20;99.90;;;;;;4916426;29;20415;-75
2023/11/30 00:11:50;;;;;;;11.87;8.47;;;1.20;99.90;;;;;;4915141;29;20187;-76
2023/11/30 00:14:16;;;;;;;15.53;9.13;;;1.20;99.90;;;;;;4895437;29;20491;-75
2023/11/30 00:16:41;;;;;;;10.53;7.83;;;1.20;99.90;;;;;;4914138;29;20653;-75
2023/11/30 00:19:07;;;;;;;10.40;8.07;;;1.20;99.90;;;;;;4914750;29;20175;-77
2023/11/30 00:21:33;;;;;;;17.63;11.13;;;1.20;99.90;;;;;;4915803;29;20207;-77
2023/11/30 00:23:58;;;;;;;15.73;10.73;;;1.20;99.90;;;;;;4913969;29;20183;-77
2023/11/30 00:26:24;;;;;;;19.73;11.47;;;1.20;99.90;;;;;;4912311;29;20307;-77
2023/11/30 00:28:56;;;;;;;14.17;11.20;;;1.30;99.90;;;;;;4897954;29;20351;-76
2023/11/30 00:31:22;;;;;;;19.87;10.97;;;1.20;99.90;;;;;;4894922;29;20424;-77
2023/11/30 00:33:48;;;;;;;15.27;9.80;;;1.20;99.90;;;;;;4893898;29;20251;-76
2023/11/30 00:36:14;;;;;;;15.23;10.50;;;1.20;99.90;;;;;;4913403;29;20310;-77
2023/11/30 00:38:39;;;;;;;13.00;10.30;;;1.10;99.90;;;;;;4897657;29;20431;-74
2023/11/30 00:41:05;;;;;;;15.13;9.70;;;1.10;99.90;;;;;;4911400;29;20229;-75
2023/11/30 00:43:31;;;;;;;10.87;8.20;;;1.00;99.90;;;;;;4903272;29;20210;-76
2023/11/30 00:45:57;;;;;;;12.50;8.93;;;0.90;99.90;;;;;;4901481;29;20539;-78
2023/11/30 00:48:23;;;;;;;12.27;8.90;;;0.90;99.90;;;;;;4899594;29;20187;-75
2023/11/30 00:50:49;;;;;;;14.27;10.63;;;0.90;99.90;;;;;;4912884;29;20416;-76
2023/11/30 00:53:15;;;;;;;14.63;9.47;;;0.90;99.90;;;;;;4912684;29;20483;-75
2023/11/30 00:55:40;;;;;;;12.57;9.67;;;0.80;99.90;;;;;;4911127;29;20218;-76
2023/11/30 00:58:06;;;;;;;13.50;8.73;;;0.80;99.90;;;;;;4902428;29;20191;-75
2023/11/30 01:00:31;;;;;;;11.57;8.13;;;0.80;99.90;;;;;;4902137;29;20201;-76
2023/11/30 01:02:57;;;;;;;10.40;7.97;;;0.80;99.90;;;;;;4912253;29;20171;-74
2023/11/30 01:05:23;;;;;;;10.30;7.00;;;0.80;99.90;;;;;;4911582;29;20477;-76
2023/11/30 01:07:48;;;;;;;10.77;7.50;;;0.80;99.90;;;;;;4896965;29;20190;-75
2023/11/30 01:10:15;;;;;;;10.83;7.83;;;0.90;99.90;;;;;;4911332;29;20183;-76
2023/11/30 01:12:40;;;;;;;11.03;7.33;;;0.90;99.90;;;;;;4910277;29;20472;-77
2023/11/30 01:15:07;;;;;;;14.87;9.07;;;0.90;99.90;;;;;;4912569;29;20507;-75
2023/11/30 01:17:33;;;;;;;11.80;8.50;;;1.00;99.90;;;;;;4909614;29;20518;-76
2023/11/30 01:19:59;;;;;;;11.70;10.13;;;1.00;99.90;;;;;;4899777;29;20458;-76
2023/11/30 01:22:24;;;;;;;13.20;9.50;;;1.00;99.90;;;;;;4910221;29;20286;-75
2023/11/30 01:24:50;;;;;;;15.03;10.00;;;1.00;99.90;;;;;;4912399;29;20262;-77
2023/11/30 01:27:16;;;;;;;14.37;9.50;;;1.00;99.90;;;;;;4904713;29;20199;-74
2023/11/30 01:29:42;;;;;;;13.20;11.27;;;1.10;99.90;;;;;;4902219;29;20235;-75
2023/11/30 01:32:09;;;;;;;14.20;10.43;;;1.20;99.90;;;;;;4912878;29;20399;-77
2023/11/30 01:34:38;;;;;;;12.30;10.53;;;1.20;99.90;;;;;;4920581;29;20267;-79
2023/11/30 01:37:03;;;;;;;12.03;9.50;;;1.20;99.90;;;;;;4901464;29;20493;-75
2023/11/30 01:39:29;;;;;;;12.10;9.20;;;1.20;99.90;;;;;;4914154;29;20435;-77
2023/11/30 01:41:55;;;;;;;15.80;10.67;;;1.20;99.90;;;;;;4911836;29;20241;-75
2023/11/30 01:44:21;;;;;;;12.50;10.23;;;1.20;99.90;;;;;;4909915;29;20411;-78
2023/11/30 01:46:46;;;;;;;13.43;8.53;;;1.20;99.90;;;;;;4909990;29;20196;-75
2023/11/30 01:49:12;;;;;;;14.10;9.43;;;1.20;99.90;;;;;;4909002;29;20195;-75
2023/11/30 01:51:38;;;;;;;13.23;8.87;;;1.20;99.90;;;;;;4909559;29;20282;-76
2023/11/30 01:54:04;;;;;;;15.33;11.27;;;1.20;99.90;;;;;;4910591;29;20207;-74
2023/11/30 01:56:32;;;;;;;12.17;10.57;;;1.20;99.90;;;;;;4907336;29;20483;-75
2023/11/30 01:58:58;;;;;;;12.23;9.90;;;1.20;99.90;;;;;;4901269;29;20426;-75
2023/11/30 02:01:27;;;;;;;13.40;10.47;;;1.20;99.90;;;;;;4906198;29;20787;-75
2023/11/30 02:03:54;;;;;;;13.83;10.27;;;1.20;99.90;;;;;;4890595;29;20415;-74
2023/11/30 02:06:19;;;;;;;13.77;9.87;;;1.20;99.90;;;;;;4908693;29;20470;-76
2023/11/30 02:08:46;;;;;;;12.83;10.40;;;1.20;99.90;;;;;;4907171;29;20883;-74
2023/11/30 02:11:13;;;;;;;15.70;9.97;;;1.20;99.90;;;;;;4905718;29;20557;-74
2023/11/30 02:13:39;;;;;;;13.63;8.97;;;1.20;99.90;;;;;;4904239;29;20442;-74
2023/11/30 02:16:05;;;;;;;12.47;8.83;;;1.20;99.90;;;;;;4907306;29;20481;-75
2023/11/30 02:18:31;;;;;;;11.27;8.97;;;1.20;99.90;;;;;;4907082;29;20199;-75
2023/11/30 02:20:56;;;;;;;13.10;8.90;;;1.20;99.90;;;;;;4908172;29;20494;-75
2023/11/30 02:23:22;;;;;;;17.57;9.50;;;1.20;99.90;;;;;;4907545;29;20231;-76
2023/11/30 02:25:48;;;;;;;15.00;10.53;;;1.20;99.90;;;;;;4904988;29;20443;-73
2023/11/30 02:28:17;;;;;;;15.37;9.90;;;1.20;99.90;;;;;;4903970;29;20274;-75
2023/11/30 02:30:48;;;;;;;13.83;10.67;;;1.20;99.90;;;;;;4898358;29;20175;-74
2023/11/30 02:33:14;;;;;;;16.30;11.47;;;1.20;99.90;;;;;;4905980;29;20423;-74
2023/11/30 02:35:41;;;;;;;15.40;10.00;;;1.20;99.90;;;;;;4905276;29;20531;-75
2023/11/30 02:38:07;;;;;;;14.27;10.30;;;1.20;99.90;;;;;;4905591;29;20498;-75
2023/11/30 02:40:33;;;;;;;12.77;9.50;;;1.20;99.90;;;;;;4906793;29;20462;-74
2023/11/30 02:42:58;;;;;;;14.77;10.93;;;1.20;99.90;;;;;;4906255;29;20247;-75
2023/11/30 02:45:24;;;;;;;15.43;9.53;;;1.20;99.90;;;;;;4910132;29;20673;-75
2023/11/30 02:47:51;;;;;;;11.30;8.47;;;1.20;99.90;;;;;;4910293;29;20195;-75
2023/11/30 02:50:16;;;;;;;11.70;9.20;;;1.30;99.90;;;;;;4909535;29;20207;-74
2023/11/30 02:52:42;;;;;;;13.10;9.77;;;1.20;99.90;;;;;;4909729;29;20429;-74
2023/11/30 02:55:07;;;;;;;13.83;10.40;;;1.20;99.90;;;;;;4873449;29;20324;-74
2023/11/30 02:57:34;;;;;;;15.50;10.67;;;1.20;99.90;;;;;;4861251;29;20208;-73
2023/11/30 02:59:59;;;;;;;15.70;10.70;;;1.20;99.90;;;;;;4873523;29;20270;-74
2023/11/30 03:02:25;;;;;;;12.90;10.00;;;1.20;99.90;;;;;;4889985;29;20560;-75
2023/11/30 03:04:51;;;;;;;14.60;10.47;;;1.20;99.90;;;;;;4873993;29;20219;-75
2023/11/30 03:07:16;;;;;;;12.97;9.20;;;1.20;99.90;;;;;;4889506;29;20499;-75
2023/11/30 03:09:42;;;;;;;13.33;10.83;;;1.20;99.90;;;;;;4879647;29;20220;-76
2023/11/30 03:12:07;;;;;;;17.20;10.60;;;1.20;99.90;;;;;;4874846;29;20191;-74
2023/11/30 03:14:33;;;;;;;13.60;9.67;;;1.20;99.90;;;;;;4882654;29;20208;-74
2023/11/30 03:16:59;;;;;;;14.47;10.10;;;1.20;99.90;;;;;;4890499;29;20248;-75
2023/11/30 03:19:24;;;;;;;13.93;10.30;;;1.30;99.90;;;;;;4892889;29;20495;-76
2023/11/30 03:21:51;;;;;;;18.77;10.47;;;1.30;99.90;;;;;;4895702;29;20223;-75
2023/11/30 03:24:20;;;;;;;17.87;11.83;;;1.30;99.90;;;;;;4909931;29;20603;-75
2023/11/30 03:26:46;;;;;;;17.43;10.33;;;1.30;99.90;;;;;;4925255;29;20422;-75
2023/11/30 03:29:11;;;;;;;16.10;10.47;;;1.30;99.90;;;;;;4911855;29;20418;-75
2023/11/30 03:31:37;;;;;;;15.20;10.50;;;1.30;99.90;;;;;;4927626;29;20225;-75
2023/11/30 03:34:03;;;;;;;15.03;11.37;;;1.40;99.90;;;;;;4911564;29;20195;-74
2023/11/30 03:36:28;;;;;;;12.47;10.37;;;1.40;99.90;;;;;;4931735;29;20650;-75
2023/11/30 03:38:55;;;;;;;12.60;10.70;;;1.30;99.90;;;;;;4911608;29;20407;-75
2023/11/30 03:41:22;;;;;;;15.60;10.20;;;1.30;99.90;;;;;;4911369;29;20226;-75
2023/11/30 03:43:48;;;;;;;16.30;11.80;;;1.30;99.90;;;;;;4903099;29;20426;-75
2023/11/30 03:46:14;;;;;;;18.13;12.47;;;1.30;99.90;;;;;;4914609;29;20438;-74
2023/11/30 03:48:40;;;;;;;17.43;12.90;;;1.30;99.90;;;;;;4907869;29;20195;-73
2023/11/30 03:51:06;;;;;;;16.43;11.07;;;1.30;99.90;;;;;;4893050;29;20491;-76
2023/11/30 03:53:32;;;;;;;13.57;10.37;;;1.30;99.90;;;;;;4909656;29;20415;-75
2023/11/30 03:56:01;;;;;;;15.87;11.50;;;1.30;99.90;;;;;;4909953;29;20443;-74
2023/11/30 03:58:26;;;;;;;17.27;12.50;;;1.30;99.90;;;;;;4909148;29;20207;-75
2023/11/30 04:00:52;;;;;;;15.10;10.87;;;1.30;99.90;;;;;;4907857;29;20501;-75
2023/11/30 04:03:17;;;;;;;17.40;11.03;;;1.30;99.90;;;;;;4910889;29;20195;-74
2023/11/30 04:05:43;;;;;;;15.33;11.10;;;1.30;99.90;;;;;;4911854;29;20211;-75
2023/11/30 04:08:09;;;;;;;14.67;10.57;;;1.30;99.90;;;;;;4909149;29;20246;-73
2023/11/30 04:10:34;;;;;;;18.57;11.87;;;1.30;99.90;;;;;;4906143;29;20191;-75
2023/11/30 04:13:00;;;;;;;18.57;12.73;;;1.30;99.90;;;;;;4897581;29;20583;-74
2023/11/30 04:15:26;;;;;;;15.73;11.10;;;1.30;99.90;;;;;;4898239;29;20212;-75
2023/11/30 04:17:52;;;;;;;19.37;11.90;;;1.40;99.90;;;;;;4901470;29;20564;-75
2023/11/30 04:20:17;;;;;;;17.50;12.00;;;1.40;99.90;;;;;;4901988;29;20431;-75
2023/11/30 04:22:43;;;;;;;17.77;11.80;;;1.40;99.90;;;;;;4901449;29;20210;-74
2023/11/30 04:25:09;;;;;;;20.80;13.40;;;1.40;99.90;;;;;;4901925;29;20282;-76
2023/11/30 04:27:35;;;;;;;15.23;11.67;;;1.40;99.90;;;;;;4898367;29;20192;-74
2023/11/30 04:30:01;;;;;;;15.10;10.53;;;1.40;99.90;;;;;;4901644;29;20844;-76
2023/11/30 04:32:26;;;;;;;15.97;11.60;;;1.40;99.90;;;;;;4902367;29;20548;-74
2023/11/30 04:34:52;;;;;;;19.50;13.27;;;1.40;99.90;;;;;;4902043;29;20428;-76
2023/11/30 04:37:18;;;;;;;18.83;13.10;;;1.40;99.90;;;;;;4902491;29;20278;-75
2023/11/30 04:39:44;;;;;;;16.70;12.97;;;1.40;99.90;;;;;;4901143;29;20503;-75
2023/11/30 04:42:10;;;;;;;15.67;12.10;;;1.40;99.90;;;;;;4900516;29;20462;-75
2023/11/30 04:44:36;;;;;;;13.43;11.70;;;1.40;99.90;;;;;;4899973;29;20600;-75
2023/11/30 04:47:01;;;;;;;20.30;13.33;;;1.40;99.90;;;;;;4898966;29;20424;-75
2023/11/30 04:49:28;;;;;;;18.03;12.33;;;1.50;99.90;;;;;;4900551;29;20187;-75
2023/11/30 04:51:54;;;;;;;17.87;12.40;;;1.50;99.90;;;;;;4900327;29;20415;-75
2023/11/30 04:54:20;;;;;;;20.63;12.97;;;1.50;99.90;;;;;;4900584;29;20507;-75
2023/11/30 04:56:46;;;;;;;15.97;11.97;;;1.50;99.90;;;;;;4901055;29;20198;-75
2023/11/30 04:59:11;;;;;;;23.80;13.07;;;1.50;99.90;;;;;;4899206;29;20217;-75
2023/11/30 05:01:37;;;;;;;21.57;14.70;;;1.50;99.90;;;;;;4906964;29;20214;-75
2023/11/30 05:04:02;;;;;;;21.93;14.10;;;1.50;99.90;;;;;;4906893;29;20583;-75
2023/11/30 05:06:28;;;;;;;19.57;13.80;;;1.50;99.90;;;;;;4908483;29;20215;-74
2023/11/30 05:08:53;;;;;;;20.50;12.90;;;1.50;99.90;;;;;;4909465;29;20193;-76
2023/11/30 05:11:20;;;;;;;16.00;11.93;;;1.50;99.90;;;;;;4911356;29;20251;-76
2023/11/30 05:13:45;;;;;;;19.43;13.63;;;1.50;99.90;;;;;;4913146;29;20190;-76
2023/11/30 05:16:12;;;;;;;20.70;13.00;;;1.50;99.90;;;;;;4901275;29;20535;-76
2023/11/30 05:18:38;;;;;;;19.87;13.53;;;1.50;99.90;;;;;;4865289;29;20199;-76
2023/11/30 05:21:04;;;;;;;20.80;13.00;;;1.50;99.90;;;;;;4912905;29;20489;-75
2023/11/30 05:23:29;;;;;;;17.00;12.10;;;1.50;99.90;;;;;;4909257;29;20592;-75
2023/11/30 05:25:57;;;;;;;18.83;12.63;;;1.50;99.90;;;;;;4910697;29;20811;-75
2023/11/30 05:28:22;;;;;;;22.03;14.43;;;1.50;99.90;;;;;;4902388;29;20188;-74
2023/11/30 05:30:48;;;;;;;20.70;13.07;;;1.50;99.90;;;;;;4904887;29;20426;-76
2023/11/30 05:33:15;;;;;;;17.67;12.23;;;1.50;99.90;;;;;;4912967;29;20182;-76
2023/11/30 05:35:41;;;;;;;19.73;11.97;;;1.50;99.90;;;;;;4912995;29;20234;-75
2023/11/30 05:38:06;;;;;;;19.90;12.03;;;1.40;99.90;;;;;;4914066;29;20427;-76
2023/11/30 05:40:32;;;;;;;20.67;13.47;;;1.40;99.90;;;;;;4897396;29;20503;-75
2023/11/30 05:42:57;;;;;;;20.70;13.87;;;1.40;99.90;;;;;;4898592;29;20207;-74
2023/11/30 05:45:23;;;;;;;24.90;14.83;;;1.50;99.90;;;;;;4906123;29;20488;-76
2023/11/30 05:47:49;;;;;;;22.97;15.00;;;1.40;99.90;;;;;;4895838;29;20199;-76
2023/11/30 05:50:15;;;;;;;19.30;13.53;;;1.50;99.90;;;;;;4912601;29;20193;-75
2023/11/30 05:52:40;;;;;;;22.43;13.43;;;1.50;99.90;;;;;;4912432;29;20428;-75
2023/11/30 05:55:07;;;;;;;21.00;13.90;;;1.50;99.90;;;;;;4914185;29;20255;-75
2023/11/30 05:57:33;;;;;;;22.30;13.30;;;1.50;99.90;;;;;;4910015;29;20195;-78
2023/11/30 05:59:59;;;;;;;22.13;13.37;;;1.60;99.90;;;;;;4910326;29;20491;-76
2023/11/30 06:02:26;;;;;;;20.13;13.63;;;1.60;99.90;;;;;;4916104;29;20222;-76
2023/11/30 06:04:53;;;;;;;22.30;13.60;;;1.50;99.90;;;;;;4917219;29;20248;-77
2023/11/30 06:07:20;;;;;;;20.43;13.47;;;1.50;99.90;;;;;;4916172;29;20432;-77
2023/11/30 06:09:47;;;;;;;20.90;13.70;;;1.60;99.90;;;;;;4901063;29;20483;-75
2023/11/30 06:12:13;;;;;;;24.90;13.93;;;1.50;99.90;;;;;;4897942;29;20431;-76
2023/11/30 06:14:38;;;;;;;19.90;13.27;;;1.60;99.90;;;;;;4912946;29;20419;-77
2023/11/30 06:17:05;;;;;;;19.80;12.60;;;1.60;99.90;;;;;;4913761;29;20186;-77
2023/11/30 06:19:30;;;;;;;24.03;13.60;;;1.60;99.90;;;;;;4912366;29;20426;-77
2023/11/30 06:21:57;;;;;;;24.33;14.03;;;1.70;99.90;;;;;;4899124;29;20226;-77
2023/11/30 06:24:26;;;;;;;24.93;14.57;;;1.70;99.90;;;;;;4898339;29;20183;-76
2023/11/30 06:26:53;;;;;;;24.50;13.80;;;1.80;99.90;;;;;;4912271;29;20499;-77
2023/11/30 06:29:19;;;;;;;21.73;14.00;;;1.80;99.90;;;;;;4897990;29;20515;-77
2023/11/30 06:31:45;;;;;;;25.60;13.90;;;1.90;99.90;;;;;;4897427;29;20431;-76
2023/11/30 06:34:11;;;;;;;20.23;12.90;;;1.90;99.90;;;;;;4896761;29;20438;-79
2023/11/30 06:36:37;;;;;;;26.60;16.00;;;1.90;99.90;;;;;;4898447;29;20227;-79
2023/11/30 06:39:04;;;;;;;26.00;15.30;;;1.80;99.90;;;;;;4915757;29;20257;-80
2023/11/30 06:41:32;;;;;;;19.83;13.77;;;1.80;99.90;;;;;;4915057;29;20467;-76
2023/11/30 06:43:58;;;;;;;26.33;15.67;;;1.80;99.90;;;;;;4890992;29;20492;-76
2023/11/30 06:46:24;;;;;;;21.43;13.03;;;1.90;99.90;;;;;;4896869;29;20459;-77
2023/11/30 06:48:50;;;;;;;33.00;15.43;;;1.90;99.90;;;;;;4899208;29;20168;-75
2023/11/30 06:51:16;;;;;;;24.77;14.87;;;1.90;99.90;;;;;;4898053;29;20415;-79
2023/11/30 06:53:42;;;;;;;23.23;14.50;;;1.90;99.90;;;;;;4904146;29;20472;-78
2023/11/30 06:56:12;;;;;;;23.27;14.60;;;1.90;99.90;;;;;;4903290;29;20538;-78
2023/11/30 06:58:38;;;;;;;25.57;15.70;;;1.90;99.90;;;;;;4917135;29;20528;-76
2023/11/30 07:01:06;;;;;;;24.53;14.77;;;1.90;99.90;;;;;;4915409;29;20462;-77
2023/11/30 07:03:32;;;;;;;23.70;14.13;;;1.90;99.90;;;;;;4917900;29;20396;-78
2023/11/30 07:05:58;;;;;;;21.73;13.03;;;1.90;99.90;;;;;;4915274;29;20541;-78
2023/11/30 07:08:24;;;;;;;22.97;13.07;;;1.90;99.90;;;;;;4915598;29;20428;-77
2023/11/30 07:10:49;;;;;;;22.70;15.00;;;1.80;99.90;;;;;;4914566;29;20168;-79
2023/11/30 07:13:16;;;;;;;22.23;14.03;;;1.80;99.90;;;;;;4894415;29;20211;-79
2023/11/30 07:15:43;;;;;;;22.30;13.70;;;1.80;99.90;;;;;;4898846;29;20286;-77
2023/11/30 07:18:12;;;;;;;22.00;13.10;;;1.80;99.90;;;;;;4901738;29;20430;-77
2023/11/30 07:20:37;;;;;;;23.67;15.07;;;1.80;99.90;;;;;;4918542;29;20426;-78
2023/11/30 07:23:04;;;;;;;23.13;13.10;;;1.80;99.90;;;;;;4900185;29;20760;-79
2023/11/30 07:25:30;;;;;;;22.13;13.40;;;1.80;99.90;;;;;;4916755;29;20207;-76
2023/11/30 07:27:56;;;;;;;20.57;13.07;;;1.80;99.90;;;;;;4910714;29;20449;-77
2023/11/30 07:30:22;;;;;;;20.40;13.40;;;1.80;99.90;;;;;;4901364;29;20486;-76
2023/11/30 07:32:48;;;;;;;24.33;14.47;;;1.80;99.90;;;;;;4913475;29;20402;-75
2023/11/30 07:35:14;;;;;;;21.33;12.83;;;1.80;99.90;;;;;;4913280;29;20215;-76
2023/11/30 07:37:42;;;;;;;20.33;14.27;;;1.80;99.90;;;;;;4895528;29;20198;-79
2023/11/30 07:40:08;;;;;;;21.70;12.60;;;1.90;99.90;;;;;;4912453;29;20426;-74
2023/11/30 07:42:34;;;;;;;23.50;14.60;;;1.90;99.90;;;;;;4909006;29;20475;-74
2023/11/30 07:45:01;;;;;;;21.23;13.00;;;2.00;99.90;;;;;;4911577;29;20435;-79
2023/11/30 07:47:27;;;;;;;23.23;14.07;;;2.00;99.90;;;;;;4913005;29;20211;-77
2023/11/30 07:49:54;;;;;;;21.60;13.47;;;2.00;99.90;;;;;;4911822;29;20494;-75
2023/11/30 07:52:20;;;;;;;20.60;13.60;;;2.00;99.90;;;;;;4909805;29;20483;-78
2023/11/30 07:54:46;;;;;;;21.60;12.57;;;2.10;99.90;;;;;;4894663;29;20464;-76
2023/11/30 07:57:12;;;;;;;19.10;12.57;;;2.10;99.90;;;;;;4909561;29;20482;-75
2023/11/30 07:59:37;;;;;;;21.20;14.13;;;2.10;99.90;;;;;;4906619;29;20439;-73
2023/11/30 08:02:04;;;;;;;22.73;13.63;;;2.20;99.90;;;;;;4907989;29;20198;-74
2023/11/30 08:04:31;;;;;;;20.67;12.43;;;2.20;99.90;;;;;;4896667;29;20199;-75
2023/11/30 08:06:56;;;;;;;19.90;13.80;;;2.30;99.90;;;;;;4903475;29;20483;-74
2023/11/30 08:09:23;;;;;;;20.17;12.53;;;2.30;99.90;;;;;;4908373;29;20789;-73
2023/11/30 08:11:49;;;;;;;20.00;12.10;;;2.30;99.90;;;;;;4906588;29;20203;-75
2023/11/30 08:14:16;;;;;;;17.50;12.03;;;2.40;99.90;;;;;;4887081;29;20445;-71
2023/11/30 08:16:41;;;;;;;20.23;12.90;;;2.40;99.90;;;;;;4898306;29;20904;-74
2023/11/30 08:19:07;;;;;;;18.83;11.23;;;2.40;99.90;;;;;;4907158;29;20457;-72
2023/11/30 08:21:39;;;;;;;18.07;12.30;;;2.40;99.90;;;;;;4900524;29;20222;-77
2023/11/30 08:24:05;;;;;;;17.17;11.23;;;2.40;99.90;;;;;;4901003;29;20687;-72
2023/11/30 08:26:31;;;;;;;18.08;13.40;;;2.40;99.90;;;;;;4907271;29;20466;-74
2023/11/30 08:28:56;;;;;;;17.73;12.80;;;2.50;99.90;;;;;;4900005;29;20300;-71
2023/11/30 08:31:22;;;;;;;17.30;11.17;;;2.50;99.90;;;;;;4904289;29;20183;-77
2023/11/30 08:33:48;;;;;;;17.10;10.93;;;2.50;99.90;;;;;;4905864;29;20686;-74
2023/11/30 08:36:13;;;;;;;16.57;11.53;;;2.60;99.90;;;;;;4907712;29;20246;-74
2023/11/30 08:38:39;;;;;;;16.30;10.83;;;2.70;99.90;;;;;;4903812;29;20203;-75
2023/11/30 08:41:05;;;;;;;13.20;9.07;;;2.70;99.90;;;;;;4899288;29;20226;-73
2023/11/30 08:43:30;;;;;;;15.00;10.60;;;2.70;99.90;;;;;;4900689;29;20195;-74
2023/11/30 08:45:56;;;;;;;16.70;10.07;;;2.70;99.90;;;;;;4903413;29;20219;-74
2023/11/30 08:48:22;;;;;;;13.10;9.33;;;2.70;99.90;;;;;;4909698;29;20199;-73
2023/11/30 08:50:48;;;;;;;14.90;10.80;;;2.70;99.90;;;;;;4907222;29;20226;-71
2023/11/30 08:53:13;;;;;;;16.03;10.27;;;2.70;99.90;;;;;;4890140;29;20733;-71
2023/11/30 08:55:39;;;;;;;19.67;12.17;;;2.70;99.90;;;;;;4892810;29;20214;-75
2023/11/30 08:58:05;;;;;;;16.93;11.20;;;2.70;99.90;;;;;;4897524;29;20251;-76
2023/11/30 09:00:31;;;;;;;15.70;11.20;;;2.70;99.90;;;;;;4908238;29;20419;-75
2023/11/30 09:02:57;;;;;;;15.10;10.80;;;2.70;99.90;;;;;;4897785;29;20452;-76
2023/11/30 09:05:23;;;;;;;13.53;10.10;;;2.70;99.90;;;;;;4900574;29;20309;-75
2023/11/30 09:07:50;;;;;;;12.67;9.10;;;2.60;99.90;;;;;;4906913;29;20193;-74
2023/11/30 09:10:19;;;;;;;15.17;10.27;;;2.60;99.90;;;;;;4910369;29;20447;-75
2023/11/30 09:12:45;;;;;;;16.70;10.30;;;2.70;99.90;;;;;;4902719;29;20428;-73
2023/11/30 09:15:12;;;;;;;17.27;9.23;;;2.70;99.90;;;;;;4897343;29;20459;-71
2023/11/30 09:17:38;;;;;;;13.93;9.63;;;2.70;99.90;;;;;;4912761;29;20439;-73
2023/11/30 09:20:07;;;;;;;12.77;9.47;;;2.70;99.90;;;;;;4909208;29;20479;-75
2023/11/30 09:22:35;;;;;;;17.30;9.90;;;2.70;99.90;;;;;;4907959;29;20238;-74
2023/11/30 09:25:00;;;;;;;11.53;8.60;;;2.70;99.90;;;;;;4884654;29;20463;-72
2023/11/30 09:27:26;;;;;;;14.97;8.80;;;2.70;99.90;;;;;;4904736;29;20424;-74
2023/11/30 09:29:52;;;;;;;14.90;10.07;;;2.70;99.90;;;;;;4907606;29;20211;-75
2023/11/30 09:32:18;;;;;;;12.53;8.80;;;2.80;99.90;;;;;;4901679;29;20199;-74
2023/11/30 09:34:44;;;;;;;12.47;9.10;;;2.80;99.90;;;;;;4910707;29;20218;-76
2023/11/30 09:37:09;;;;;;;15.17;9.43;;;2.80;99.90;;;;;;4893402;29;20501;-74
2023/11/30 09:39:35;;;;;;;13.90;9.47;;;2.90;99.90;;;;;;4909509;29;20269;-74
2023/11/30 09:42:03;;;;;;;13.27;8.43;;;2.90;99.90;;;;;;4899542;29;20299;-78
2023/11/30 09:44:29;;;;;;;13.90;8.57;;;3.00;99.90;;;;;;4903029;29;20200;-75
2023/11/30 09:46:55;;;;;;;14.17;9.33;;;3.10;99.90;;;;;;4909673;29;20469;-77
2023/11/30 09:49:20;;;;;;;14.83;9.60;;;3.20;99.90;;;;;;4899085;29;20195;-74
2023/11/30 09:51:51;;;;;;;12.63;8.67;;;3.20;99.90;;;;;;4904229;29;20225;-74
2023/11/30 09:54:19;;;;;;;12.50;7.80;;;3.30;99.90;;;;;;4908319;29;20601;-76
2023/11/30 09:56:45;;;;;;;14.63;9.63;;;3.30;99.90;;;;;;4911428;29;20439;-76
2023/11/30 09:59:11;;;;;;;13.13;8.70;;;3.30;99.90;;;;;;4905305;29;20474;-75
2023/11/30 10:01:39;;;;;;;13.73;8.20;;;3.30;99.90;;;;;;4899918;29;20471;-77
2023/11/30 10:04:15;;;;;;;11.67;8.03;;;3.40;99.90;;;;;;4896595;29;20431;-76
2023/11/30 10:06:42;;;;;;;12.60;9.23;;;3.40;99.90;;;;;;4907188;29;20463;-75
2023/11/30 10:09:12;;;;;;;10.57;7.20;;;3.50;99.90;;;;;;4897652;29;20440;-77
2023/11/30 10:11:40;;;;;;;12.00;7.80;;;3.50;99.90;;;;;;4912056;29;20418;-79
2023/11/30 10:14:07;;;;;;;9.67;7.20;;;3.50;99.90;;;;;;4901606;29;20430;-79
2023/11/30 10:16:36;;;;;;;14.10;8.37;;;3.50;99.90;;;;;;5469003;23;20477;-78
2023/11/30 10:19:04;;;;;;;10.60;7.37;;;3.60;99.90;;;;;;4896916;29;20405;-83
2023/11/30 10:21:40;;;;;;;10.80;6.70;;;3.60;99.90;;;;;;4869298;29;20472;-78
2023/11/30 10:24:08;;;;;;;9.03;6.70;;;3.70;99.90;;;;;;4883887;29;20424;-79
2023/11/30 10:26:58;;;;;;;13.70;7.77;;;3.70;99.90;;;;;;4901901;29;20523;-81
2023/11/30 10:30:10;;;;;;;13.27;7.50;;;3.80;99.90;;;;;;4903719;29;20435;-80
2023/11/30 10:32:39;;;;;;;10.40;8.13;;;3.80;99.90;;;;;;4868310;29;20415;-77
2023/11/30 10:35:10;;;;;;;9.60;6.00;;;3.90;99.90;;;;;;4882966;29;20459;-78
2023/11/30 10:37:43;;;;;;;7.43;5.63;;;4.00;99.90;;;;;;4899423;29;20417;-79
2023/11/30 10:40:14;;;;;;;10.90;6.10;;;4.00;99.90;;;;;;4884156;29;20430;-80
2023/11/30 10:42:50;;;;;;;8.93;6.73;;;4.10;99.90;;;;;;4892782;29;20513;-78
2023/11/30 10:45:19;;;;;;;8.57;6.73;;;4.10;99.90;;;;;;4864263;29;20441;-79
2023/11/30 10:47:47;;;;;;;8.80;5.80;;;4.20;99.90;;;;;;4862084;29;20428;-79
2023/11/30 10:50:14;;;;;;;10.20;6.70;;;4.20;99.90;;;;;;4879594;29;20435;-77
2023/11/30 10:52:43;;;;;;;9.30;6.30;;;4.20;99.90;;;;;;4871108;29;20430;-79
2023/11/30 10:55:11;;;;;;;8.70;6.67;;;4.20;99.90;;;;;;4892511;29;20470;-77
2023/11/30 10:57:44;;;;;;;8.60;6.33;;;4.20;99.90;;;;;;4872494;29;20438;-78
2023/11/30 11:00:15;;;;;;;10.00;7.63;;;4.30;99.90;;;;;;4890339;29;20518;-74
2023/11/30 11:02:46;;;;;;;9.40;6.77;;;4.40;99.90;;;;;;4891436;29;20472;-76
2023/11/30 11:05:14;;;;;;;7.70;6.33;;;4.40;99.90;;;;;;4894270;29;20444;-75
2023/11/30 11:07:47;;;;;;;12.30;7.20;;;4.40;99.90;;;;;;4897736;29;20431;-76
2023/11/30 11:10:26;;;;;;;7.17;5.57;;;4.40;99.90;;;;;;4881822;29;20438;-76
2023/11/30 11:12:52;;;;;;;6.77;4.93;;;4.50;99.90;;;;;;4887344;29;20429;-77
2023/11/30 11:15:21;;;;;;;8.90;6.57;;;4.50;99.90;;;;;;4870922;29;20548;-78
2023/11/30 11:17:52;;;;;;;12.60;6.57;;;4.60;99.90;;;;;;4875155;29;20483;-76
2023/11/30 11:20:36;;;;;;;7.20;5.30;;;4.50;99.90;;;;;;4873357;29;20523;-75
2023/11/30 11:23:09;;;;;;;9.27;6.57;;;4.50;99.90;;;;;;4882520;29;20959;-76
2023/11/30 11:25:45;;;;;;;8.07;5.50;;;4.40;99.90;;;;;;4889034;29;20456;-75
2023/11/30 11:28:19;;;;;;;6.77;4.80;;;4.40;99.90;;;;;;4882507;29;20433;-76
2023/11/30 11:30:49;;;;;;;7.30;5.73;;;4.50;99.90;;;;;;4881058;29;20507;-78
2023/11/30 11:33:17;;;;;;;8.37;5.27;;;4.50;99.90;;;;;;4867716;29;20470;-78
2023/11/30 11:35:42;;;;;;;7.37;5.00;;;4.50;99.90;;;;;;4880849;29;20463;-77
2023/11/30 11:38:09;;;;;;;12.57;6.20;;;4.50;99.90;;;;;;4893565;29;20425;-76
2023/11/30 11:40:38;;;;;;;6.83;5.30;;;4.50;99.90;;;;;;4895689;29;20287;-78
2023/11/30 11:43:04;;;;;;;8.03;6.13;;;4.50;99.90;;;;;;4895526;29;20797;-76
2023/11/30 11:45:30;;;;;;;9.17;6.47;;;4.50;99.90;;;;;;4877115;29;20491;-76
2023/11/30 11:47:56;;;;;;;7.60;5.50;;;4.50;99.90;;;;;;4892933;29;20199;-76
2023/11/30 11:50:22;;;;;;;8.23;6.53;;;4.50;99.90;;;;;;4892166;29;20713;-77
2023/11/30 11:52:48;;;;;;;7.63;5.20;;;4.60;99.90;;;;;;4893038;29;20443;-75
2023/11/30 11:55:16;;;;;;;10.97;7.47;;;4.60;99.90;;;;;;4894624;29;20485;-75
2023/11/30 11:57:43;;;;;;;11.47;7.50;;;4.70;99.90;;;;;;4896231;29;20416;-76
2023/11/30 12:00:16;;;;;;;9.37;6.80;;;4.70;99.90;;;;;;4887484;29;20488;-75
2023/11/30 12:02:42;;;;;;;12.30;8.10;;;4.80;99.90;;;;;;4892523;29;20489;-76
2023/11/30 12:05:09;;;;;;;8.03;6.60;;;4.80;99.90;;;;;;4879302;29;20525;-75
2023/11/30 12:07:56;;;;;;;10.53;7.07;;;4.80;99.90;;;;;;4893021;29;20424;-75
2023/11/30 12:10:36;;;;;;;9.07;6.17;;;4.80;99.90;;;;;;4881810;29;20956;-76
2023/11/30 12:13:03;;;;;;;9.50;6.53;;;4.80;99.90;;;;;;4895900;29;20447;-74
2023/11/30 12:15:29;;;;;;;7.47;6.00;;;4.80;99.90;;;;;;4892458;29;20456;-76
2023/11/30 12:17:55;;;;;;;8.27;6.47;;;4.80;99.90;;;;;;4889879;29;20258;-75
2023/11/30 12:20:21;;;;;;;10.57;7.50;;;4.90;99.90;;;;;;4889861;29;20417;-77
2023/11/30 12:22:47;;;;;;;10.00;7.20;;;4.90;99.90;;;;;;4891511;29;20211;-76
2023/11/30 12:25:13;;;;;;;12.83;7.90;;;4.90;99.90;;;;;;4887047;29;20207;-77
2023/11/30 12:27:38;;;;;;;10.97;7.27;;;5.00;99.90;;;;;;4879462;29;20535;-77
2023/11/30 12:30:05;;;;;;;9.30;7.87;;;5.00;99.90;;;;;;4886717;29;20247;-77
2023/11/30 12:32:30;;;;;;;8.47;7.13;;;5.00;99.90;;;;;;4891940;29;20433;-77
2023/11/30 12:34:57;;;;;;;9.70;6.60;;;5.00;99.90;;;;;;4896972;29;20440;-79
2023/11/30 12:37:23;;;;;;;10.40;7.63;;;5.00;99.90;;;;;;4891083;29;20199;-76
2023/11/30 12:39:49;;;;;;;7.60;5.80;;;5.00;99.90;;;;;;4874859;29;20433;-75
2023/11/30 12:42:16;;;;;;;8.53;6.80;;;5.00;99.90;;;;;;4862451;29;20469;-77